createdAt,value
2018-12-23T00:02:23.333Z,2.49
2018-12-23T00:04:51.915Z,2.51
2018-12-23T00:07:20.535Z,2.60
2018-12-23T00:09:49.142Z,2.75
2018-12-23T00:12:17.701Z,3.03
2018-12-23T00:14:46.308Z,3.26
2018-12-23T00:17:14.921Z,3.08
2018-12-23T00:19:43.450Z,3.10
2018-12-23T00:22:12.074Z,2.73
2018-12-23T00:24:40.642Z,2.64
2018-12-23T00:27:09.182Z,2.59
2018-12-23T00:29:37.717Z,2.50
2018-12-23T00:32:06.371Z,2.28
2018-12-23T00:34:35.937Z,2.22
2018-12-23T00:37:04.589Z,2.23
2018-12-23T00:39:33.200Z,2.17
2018-12-23T00:42:01.818Z,2.24
2018-12-23T00:44:30.424Z,2.24
2018-12-23T00:46:59.119Z,2.35
2018-12-23T00:49:27.770Z,2.37
2018-12-23T00:51:56.318Z,2.48
2018-12-23T00:54:24.984Z,2.43
2018-12-23T00:56:53.568Z,2.36
2018-12-23T00:59:22.147Z,2.43
2018-12-23T01:01:50.764Z,2.36
2018-12-23T01:04:19.304Z,2.57
2018-12-23T01:06:47.847Z,2.63
2018-12-23T01:09:16.503Z,2.69
2018-12-23T01:11:45.050Z,2.73
2018-12-23T01:14:13.651Z,2.79
2018-12-23T01:16:42.227Z,2.79
2018-12-23T01:19:10.844Z,2.89
2018-12-23T01:21:39.425Z,2.78
2018-12-23T01:24:08.040Z,2.74
2018-12-23T01:26:36.681Z,2.74
2018-12-23T01:29:05.335Z,2.82
2018-12-23T01:31:33.929Z,2.79
2018-12-23T01:34:02.513Z,2.81
2018-12-23T01:36:31.107Z,2.93
2018-12-23T01:38:59.672Z,2.90
2018-12-23T01:41:28.327Z,2.86
2018-12-23T01:43:56.955Z,2.92
2018-12-23T01:46:25.555Z,2.99
2018-12-23T01:48:54.128Z,3.10
2018-12-23T01:51:23.049Z,3.17
2018-12-23T01:53:51.663Z,3.16
2018-12-23T01:56:20.276Z,3.25
2018-12-23T01:58:48.851Z,3.32
2018-12-23T02:01:17.480Z,3.11
2018-12-23T02:03:46.063Z,3.15
2018-12-23T02:06:14.734Z,3.22
2018-12-23T02:08:43.346Z,3.39
2018-12-23T02:11:11.968Z,3.42
2018-12-23T02:13:40.525Z,3.52
2018-12-23T02:16:09.087Z,3.50
2018-12-23T02:18:37.692Z,3.54
2018-12-23T02:21:06.310Z,3.27
2018-12-23T02:23:34.951Z,3.22
2018-12-23T02:26:03.562Z,3.33
2018-12-23T02:28:32.097Z,3.38
2018-12-23T02:31:00.771Z,3.33
2018-12-23T02:33:29.349Z,3.32
2018-12-23T02:35:57.902Z,3.34
2018-12-23T02:38:26.696Z,3.27
2018-12-23T02:40:55.310Z,3.11
2018-12-23T02:43:23.864Z,3.12
2018-12-23T02:45:52.428Z,3.13
2018-12-23T02:48:20.992Z,3.13
2018-12-23T02:50:49.568Z,2.94
2018-12-23T02:53:18.130Z,3.21
2018-12-23T02:55:46.754Z,3.20
2018-12-23T02:58:15.370Z,3.30
2018-12-23T03:00:43.954Z,3.38
2018-12-23T03:03:12.523Z,3.38
2018-12-23T03:05:41.167Z,3.29
2018-12-23T03:08:09.758Z,3.21
2018-12-23T03:10:38.307Z,3.22
2018-12-23T03:13:06.912Z,3.35
2018-12-23T03:15:35.448Z,3.65
2018-12-23T03:18:04.070Z,3.91
2018-12-23T03:20:32.641Z,4.16
2018-12-23T03:23:01.167Z,4.37
2018-12-23T03:25:29.756Z,4.62
2018-12-23T03:27:58.380Z,4.79
2018-12-23T03:30:26.979Z,4.94
2018-12-23T03:32:55.561Z,5.18
2018-12-23T03:35:24.176Z,5.36
2018-12-23T03:37:52.753Z,5.53
2018-12-23T03:40:21.315Z,5.73
2018-12-23T03:42:49.870Z,5.82
2018-12-23T03:45:18.485Z,5.93
2018-12-23T03:47:47.070Z,6.03
2018-12-23T03:50:15.692Z,6.07
2018-12-23T03:52:44.320Z,6.01
2018-12-23T03:55:12.912Z,6.05
2018-12-23T03:57:41.516Z,6.11
2018-12-23T04:00:10.117Z,5.92
2018-12-23T04:02:38.670Z,5.96
2018-12-23T04:05:07.205Z,5.84
2018-12-23T04:07:35.784Z,5.69
2018-12-23T04:10:04.523Z,5.60
2018-12-23T04:12:33.110Z,5.43
2018-12-23T04:15:01.711Z,5.18
2018-12-23T04:17:30.261Z,4.95
2018-12-23T04:19:58.888Z,4.71
2018-12-23T04:22:27.572Z,4.65
2018-12-23T04:24:56.261Z,4.51
2018-12-23T04:27:24.871Z,4.38
2018-12-23T04:29:53.441Z,4.27
2018-12-23T04:32:22.009Z,4.29
2018-12-23T04:34:51.206Z,4.21
2018-12-23T04:37:19.771Z,4.32
2018-12-23T04:39:48.363Z,4.36
2018-12-23T04:42:16.983Z,4.52
2018-12-23T04:44:45.577Z,4.62
2018-12-23T04:47:14.160Z,4.77
2018-12-23T04:49:43.250Z,4.84
2018-12-23T04:52:11.822Z,4.89
2018-12-23T04:54:40.395Z,4.98
2018-12-23T04:57:08.959Z,5.07
2018-12-23T04:59:37.588Z,5.02
2018-12-23T05:02:06.175Z,5.00
2018-12-23T05:04:34.813Z,5.06
2018-12-23T05:07:03.455Z,5.16
2018-12-23T05:09:32.044Z,5.19
2018-12-23T05:12:00.607Z,5.22
2018-12-23T05:14:29.210Z,5.26
2018-12-23T05:16:57.753Z,5.32
2018-12-23T05:19:26.344Z,5.35
2018-12-23T05:21:55.622Z,5.38
2018-12-23T05:24:24.618Z,5.40
2018-12-23T05:26:53.250Z,5.39
2018-12-23T05:29:21.858Z,5.39
2018-12-23T05:31:50.419Z,5.36
2018-12-23T05:34:19.019Z,5.38
2018-12-23T05:36:52.325Z,5.37
2018-12-23T05:39:18.329Z,5.29
2018-12-23T05:41:46.992Z,5.33
2018-12-23T05:44:15.609Z,5.43
2018-12-23T05:46:44.225Z,5.38
2018-12-23T05:49:12.905Z,5.50
2018-12-23T05:51:41.461Z,5.51
2018-12-23T05:54:10.071Z,5.48
2018-12-23T05:56:38.662Z,5.48
2018-12-23T05:59:07.256Z,5.38
2018-12-23T06:01:35.915Z,5.22
2018-12-23T06:04:04.458Z,5.13
2018-12-23T06:06:33.012Z,4.95
2018-12-23T06:09:01.709Z,4.86
2018-12-23T06:11:30.855Z,4.89
2018-12-23T06:13:59.512Z,5.00
2018-12-23T06:16:28.171Z,5.03
2018-12-23T06:18:56.919Z,5.01
2018-12-23T06:21:25.568Z,5.08
2018-12-23T06:23:54.201Z,5.12
2018-12-23T06:26:22.855Z,5.16
2018-12-23T06:28:51.402Z,5.19
2018-12-23T06:31:20.082Z,5.22
2018-12-23T06:33:48.670Z,5.19
2018-12-23T06:36:17.329Z,5.05
2018-12-23T06:38:45.870Z,4.90
2018-12-23T06:41:14.694Z,4.92
2018-12-23T06:43:43.440Z,5.08
2018-12-23T06:46:12.095Z,5.23
2018-12-23T06:48:40.682Z,5.36
2018-12-23T06:51:09.272Z,5.51
2018-12-23T06:53:37.932Z,5.63
2018-12-23T06:56:06.512Z,5.81
2018-12-23T06:58:35.273Z,5.75
2018-12-23T07:01:03.871Z,5.78
2018-12-23T07:03:32.446Z,5.71
2018-12-23T07:06:01.023Z,5.79
2018-12-23T07:08:29.591Z,5.88
2018-12-23T07:14:10.884Z,6.00
2018-12-23T07:16:40.668Z,6.11
2018-12-23T07:19:10.523Z,6.11
2018-12-23T07:21:40.722Z,6.03
2018-12-23T07:24:10.485Z,5.82
2018-12-23T07:26:40.279Z,5.90
2018-12-23T07:29:10.138Z,5.93
2018-12-23T07:31:39.884Z,6.14
2018-12-23T07:34:09.733Z,6.24
2018-12-23T07:36:39.508Z,6.36
2018-12-23T07:41:13.291Z,6.49
2018-12-23T07:43:43.107Z,6.39
2018-12-23T07:46:12.873Z,6.49
2018-12-23T07:48:42.645Z,6.58
2018-12-23T07:51:12.420Z,6.66
2018-12-23T07:53:42.222Z,6.73
2018-12-23T07:56:11.983Z,6.59
2018-12-23T07:58:41.792Z,6.39
2018-12-23T08:01:11.585Z,6.31
2018-12-23T08:03:41.353Z,6.29
2018-12-23T08:06:11.253Z,6.34
2018-12-23T08:08:40.990Z,6.33
2018-12-23T08:11:10.805Z,6.37
2018-12-23T08:13:40.657Z,6.44
2018-12-23T08:16:13.448Z,6.61
2018-12-23T08:18:43.220Z,6.87
2018-12-23T08:21:13.004Z,7.07
2018-12-23T08:23:42.766Z,7.28
2018-12-23T08:26:12.604Z,7.44
2018-12-23T08:28:42.394Z,7.56
2018-12-23T08:31:12.171Z,7.71
2018-12-23T08:33:42.058Z,7.86
2018-12-23T08:36:11.834Z,7.95
2018-12-23T08:38:41.793Z,7.97
2018-12-23T08:41:13.287Z,7.90
2018-12-23T08:47:17.757Z,7.94
2018-12-23T08:49:51.431Z,8.01
2018-12-23T08:52:22.127Z,8.09
2018-12-23T08:54:55.533Z,8.17
2018-12-23T08:57:25.529Z,8.26
2018-12-23T08:59:58.918Z,8.42
2018-12-23T09:02:28.749Z,8.56
2018-12-23T09:04:58.649Z,8.80
2018-12-23T09:07:28.810Z,9.25
2018-12-23T09:10:13.023Z,9.68
2018-12-23T09:12:46.288Z,9.94
2018-12-23T09:15:52.915Z,10.28
2018-12-23T09:18:23.428Z,10.73
2018-12-23T09:20:53.280Z,10.40
2018-12-23T09:23:23.135Z,10.42
2018-12-23T09:25:52.854Z,10.28
2018-12-23T09:28:22.605Z,10.24
2018-12-23T09:30:53.444Z,10.21
2018-12-23T09:33:23.172Z,10.23
2018-12-23T09:35:52.936Z,10.21
2018-12-23T09:38:22.680Z,10.02
2018-12-23T09:40:52.556Z,9.99
2018-12-23T09:43:22.356Z,9.83
2018-12-23T09:45:52.131Z,9.97
2018-12-23T09:48:21.894Z,9.96
2018-12-23T09:51:20.176Z,10.00
2018-12-23T10:53:45.223Z,11.70
2018-12-23T10:56:15.070Z,11.70
2018-12-23T10:58:44.945Z,11.91
2018-12-23T11:01:14.791Z,11.45
2018-12-23T11:03:44.597Z,10.85
2018-12-23T11:06:14.481Z,10.79
2018-12-23T11:08:44.318Z,10.76
2018-12-23T11:11:14.222Z,10.56
2018-12-23T11:13:44.110Z,10.81
2018-12-23T11:16:13.939Z,11.38
2018-12-23T11:18:43.877Z,11.89
2018-12-23T11:21:13.769Z,11.93
2018-12-23T11:23:43.632Z,11.80
2018-12-23T11:26:13.502Z,11.50
2018-12-23T11:28:43.359Z,11.30
2018-12-23T11:31:13.198Z,11.27
2018-12-23T11:33:43.021Z,11.25
2018-12-23T11:36:12.857Z,11.24
2018-12-23T11:38:42.672Z,11.32
2018-12-23T11:41:12.487Z,11.28
2018-12-23T11:43:42.281Z,11.42
2018-12-23T11:46:12.047Z,11.74
2018-12-23T11:48:42.020Z,11.93
2018-12-23T11:51:11.842Z,12.03
2018-12-23T11:53:41.633Z,12.52
2018-12-23T11:56:11.419Z,12.49
2018-12-23T11:58:41.475Z,12.64
2018-12-23T12:01:11.279Z,12.51
2018-12-23T12:03:41.064Z,12.43
2018-12-23T12:06:10.859Z,12.04
2018-12-23T12:08:43.884Z,11.41
2018-12-23T12:11:12.244Z,11.15
2018-12-23T12:13:42.090Z,10.85
2018-12-23T12:16:11.851Z,10.93
2018-12-23T12:18:41.617Z,10.68
2018-12-23T12:21:11.409Z,10.85
2018-12-23T12:23:41.183Z,10.38
2018-12-23T12:26:11.014Z,9.91
2018-12-23T12:28:40.947Z,9.57
2018-12-23T12:31:10.729Z,9.36
2018-12-23T12:33:40.614Z,9.14
2018-12-23T12:36:10.382Z,9.11
2018-12-23T12:38:40.204Z,9.08
2018-12-23T12:41:10.103Z,9.00
2018-12-23T12:43:39.861Z,9.02
2018-12-23T12:46:09.700Z,8.92
2018-12-23T12:48:39.517Z,8.92
2018-12-23T12:51:09.304Z,8.82
2018-12-23T12:53:39.043Z,8.74
2018-12-23T12:56:08.760Z,8.74
2018-12-23T12:58:38.620Z,8.70
2018-12-23T13:01:08.372Z,8.65
2018-12-23T13:03:38.121Z,8.57
2018-12-23T13:06:07.954Z,8.51
2018-12-23T13:08:37.735Z,8.48
2018-12-23T13:11:07.496Z,8.38
2018-12-23T13:13:37.318Z,8.28
2018-12-23T13:16:07.246Z,8.16
2018-12-23T13:18:37.043Z,8.06
2018-12-23T13:21:06.865Z,7.97
2018-12-23T13:23:36.608Z,7.88
2018-12-23T13:26:06.466Z,7.84
2018-12-23T13:28:36.320Z,7.79
2018-12-23T13:31:06.890Z,7.79
2018-12-23T13:33:36.678Z,7.78
2018-12-23T13:36:06.782Z,7.79
2018-12-23T13:38:36.542Z,7.82
2018-12-23T13:41:27.785Z,7.73
2018-12-23T13:44:25.917Z,7.73
2018-12-23T13:47:33.582Z,7.67
2018-12-23T13:50:53.583Z,7.65
2018-12-23T13:53:57.704Z,7.60
2018-12-23T13:57:03.111Z,7.55
2018-12-23T14:00:24.847Z,7.55
2018-12-23T14:03:20.757Z,7.55
2018-12-23T14:06:49.447Z,7.50
2018-12-23T14:09:50.108Z,7.59
2018-12-23T14:12:19.903Z,7.58
2018-12-23T14:14:49.672Z,7.55
2018-12-23T14:17:19.862Z,7.54
2018-12-23T14:19:49.653Z,7.52
2018-12-23T14:22:22.682Z,7.50
2018-12-23T14:24:52.553Z,7.51
2018-12-23T14:27:22.412Z,7.47
2018-12-23T14:29:52.228Z,7.45
2018-12-23T14:32:22.092Z,7.44
2018-12-23T14:34:51.808Z,7.41
2018-12-23T14:37:21.864Z,7.43
2018-12-23T14:39:51.740Z,7.44
2018-12-23T14:42:21.573Z,7.44
2018-12-23T14:44:51.408Z,7.44
2018-12-23T14:47:21.206Z,7.39
2018-12-23T14:49:50.985Z,7.36
2018-12-23T14:52:21.049Z,7.33
2018-12-23T14:54:50.900Z,7.27
2018-12-23T14:57:22.585Z,7.19
2018-12-23T14:59:52.467Z,7.13
2018-12-23T15:02:22.292Z,7.12
2018-12-23T15:04:52.107Z,7.11
2018-12-23T15:07:21.910Z,7.09
2018-12-23T15:09:54.039Z,7.11
2018-12-23T15:12:24.964Z,7.10
2018-12-23T15:14:55.548Z,7.09
2018-12-23T15:17:26.396Z,7.07
2018-12-23T15:19:56.194Z,7.06
2018-12-23T15:22:26.415Z,7.00
2018-12-23T15:24:56.266Z,6.98
2018-12-23T15:27:28.196Z,6.96
2018-12-23T15:29:58.235Z,6.96
2018-12-23T15:32:27.987Z,6.92
2018-12-23T15:34:57.805Z,6.95
2018-12-23T15:37:27.612Z,6.96
2018-12-23T15:39:57.461Z,6.97
2018-12-23T15:42:27.264Z,6.99
2018-12-23T15:44:57.048Z,6.93
2018-12-23T15:47:26.850Z,6.83
2018-12-23T15:49:56.651Z,6.82
2018-12-23T15:52:26.458Z,6.77
2018-12-23T15:54:56.282Z,6.79
2018-12-23T15:57:26.348Z,6.82
2018-12-23T15:59:56.175Z,6.85
2018-12-23T16:02:26.885Z,6.85
2018-12-23T16:04:56.887Z,6.86
2018-12-23T16:07:26.739Z,6.83
2018-12-23T16:09:56.998Z,6.81
2018-12-23T16:12:26.831Z,6.78
2018-12-23T16:14:56.636Z,6.79
2018-12-23T16:17:26.448Z,6.79
2018-12-23T16:19:56.273Z,6.73
2018-12-23T16:22:26.182Z,6.69
2018-12-23T16:24:55.997Z,6.65
2018-12-23T16:27:25.757Z,6.66
2018-12-23T16:29:55.542Z,6.62
2018-12-23T16:32:25.379Z,6.62
2018-12-23T16:34:55.168Z,6.62
2018-12-23T16:37:24.914Z,6.65
2018-12-23T16:39:59.570Z,6.60
2018-12-23T16:42:26.308Z,6.58
2018-12-23T16:44:56.147Z,6.53
2018-12-23T16:47:26.038Z,6.51
2018-12-23T16:49:55.841Z,6.60
2018-12-23T16:52:25.649Z,6.62
2018-12-23T16:54:55.472Z,6.79
2018-12-23T16:57:25.300Z,6.81
2018-12-23T16:59:55.085Z,6.79
2018-12-23T17:02:24.924Z,6.87
2018-12-23T17:05:01.650Z,6.87
2018-12-23T17:07:32.253Z,6.83
2018-12-23T17:10:08.209Z,6.81
2018-12-23T17:12:33.622Z,6.82
2018-12-23T17:15:03.398Z,6.79
2018-12-23T17:17:33.185Z,6.81
2018-12-23T17:20:02.961Z,6.83
2018-12-23T17:22:32.795Z,6.79
2018-12-23T17:25:02.676Z,6.76
2018-12-23T17:27:32.470Z,6.73
2018-12-23T17:32:38.240Z,6.69
2018-12-23T17:35:08.100Z,6.58
2018-12-23T17:37:37.930Z,6.53
2018-12-23T17:40:16.281Z,6.52
2018-12-23T17:42:39.679Z,6.53
2018-12-23T17:45:09.473Z,6.48
2018-12-23T17:47:39.295Z,6.48
2018-12-23T17:50:10.136Z,6.47
2018-12-23T17:52:39.900Z,6.47
2018-12-23T17:55:09.666Z,6.45
2018-12-23T17:57:39.435Z,6.56
2018-12-23T18:00:11.833Z,6.49
2018-12-23T18:02:41.324Z,6.56
2018-12-23T18:05:11.219Z,6.56
2018-12-23T18:07:46.591Z,6.59
2018-12-23T18:10:24.804Z,6.66
2018-12-23T18:12:47.992Z,6.62
2018-12-23T18:15:19.368Z,6.65
2018-12-23T18:17:49.147Z,6.64
2018-12-23T18:20:18.943Z,6.53
2018-12-23T18:22:48.821Z,6.54
2018-12-23T18:25:18.680Z,6.58
2018-12-23T18:27:48.503Z,6.57
2018-12-23T18:30:18.329Z,6.56
2018-12-23T18:32:48.251Z,6.48
2018-12-23T18:35:18.095Z,6.49
2018-12-23T18:37:47.916Z,6.43
2018-12-23T18:40:17.700Z,6.37
2018-12-23T18:42:47.467Z,6.38
2018-12-23T18:45:17.250Z,6.38
2018-12-23T18:47:47.044Z,6.40
2018-12-23T18:50:16.879Z,6.37
2018-12-23T18:52:46.709Z,6.36
2018-12-23T18:55:16.501Z,6.28
2018-12-23T18:57:48.103Z,6.29
2018-12-23T19:00:18.063Z,6.32
2018-12-23T19:02:56.992Z,6.33
2018-12-23T19:05:26.781Z,6.33
2018-12-23T19:08:00.589Z,6.38
2018-12-23T19:10:55.101Z,6.40
2018-12-23T19:14:01.173Z,6.40
2018-12-23T19:17:26.295Z,6.50
2018-12-23T19:34:52.864Z,6.17
2018-12-23T19:40:58.624Z,5.86
2018-12-23T19:44:02.392Z,5.73
2018-12-23T19:47:07.589Z,5.60
2018-12-23T19:50:03.812Z,5.47
2018-12-23T19:53:09.142Z,5.33
2018-12-23T19:56:17.049Z,5.13
2018-12-23T19:59:24.905Z,5.00
2018-12-23T20:02:37.611Z,4.66
2018-12-23T20:05:56.288Z,4.69
2018-12-23T20:09:00.647Z,4.57
2018-12-23T20:12:15.867Z,4.40
2018-12-23T20:15:15.381Z,4.26
2018-12-23T20:18:25.958Z,4.18
2018-12-23T20:21:46.740Z,4.09
2018-12-23T20:24:47.142Z,4.06
2018-12-23T20:27:54.888Z,4.00
2018-12-23T20:31:15.418Z,3.96
2018-12-23T20:34:34.985Z,4.06
2018-12-23T20:37:42.590Z,3.94
2018-12-23T20:40:47.652Z,4.02
2018-12-23T20:43:44.910Z,4.04
2018-12-23T20:46:44.988Z,3.92
2018-12-23T20:49:42.119Z,4.03
2018-12-23T20:52:47.351Z,3.96
2018-12-23T20:55:57.826Z,3.87
2018-12-23T20:58:53.166Z,3.83
2018-12-23T21:02:01.905Z,3.76
2018-12-23T21:05:08.192Z,3.83
2018-12-23T21:08:20.362Z,3.90
2018-12-23T21:11:25.625Z,3.89
2018-12-23T21:14:32.021Z,3.86
2018-12-23T21:17:44.716Z,3.70
2018-12-23T21:20:44.848Z,3.80
2018-12-23T21:24:01.482Z,3.74
2018-12-23T21:27:30.096Z,3.46
2018-12-23T21:30:38.255Z,3.62
2018-12-23T21:33:44.838Z,3.35
2018-12-23T21:36:58.068Z,3.50
2018-12-23T21:40:23.578Z,3.54
2018-12-23T21:43:24.265Z,3.53
2018-12-23T21:46:18.646Z,3.56
2018-12-23T21:49:34.283Z,3.53
2018-12-23T21:52:42.341Z,3.37
2018-12-23T21:55:54.752Z,3.47
2018-12-23T21:59:19.435Z,3.55
2018-12-23T22:02:16.647Z,3.62
2018-12-23T22:05:45.417Z,3.57
2018-12-23T22:08:49.260Z,3.72
2018-12-23T22:12:01.410Z,3.79
2018-12-23T22:14:31.215Z,3.80
2018-12-23T22:17:01.037Z,3.72
2018-12-23T22:19:30.819Z,3.76
2018-12-23T22:22:00.677Z,3.75
2018-12-23T22:24:30.469Z,3.78
2018-12-23T22:27:00.246Z,3.75
2018-12-23T22:29:30.047Z,3.78
2018-12-23T22:31:59.954Z,3.66
2018-12-23T22:34:29.918Z,3.62
2018-12-23T22:36:59.829Z,3.59
2018-12-23T22:39:29.580Z,3.53
2018-12-23T22:41:59.371Z,3.66
2018-12-23T22:44:29.152Z,3.49
2018-12-23T22:46:58.975Z,3.34
2018-12-23T22:49:28.785Z,3.52
2018-12-23T22:51:58.602Z,3.55
2018-12-23T22:54:28.504Z,3.32
2018-12-23T22:56:58.350Z,3.36
2018-12-23T22:59:28.143Z,3.16
2018-12-23T23:01:57.920Z,3.13
2018-12-23T23:04:27.711Z,3.13
2018-12-23T23:06:57.529Z,3.27
2018-12-23T23:09:27.429Z,3.36
2018-12-23T23:11:57.200Z,3.24
2018-12-23T23:14:27.084Z,3.37
2018-12-23T23:16:57.247Z,3.34
2018-12-23T23:19:27.022Z,3.49
2018-12-23T23:21:57.180Z,3.65
2018-12-23T23:24:27.018Z,3.79
2018-12-23T23:26:56.788Z,3.84
2018-12-23T23:29:26.623Z,3.54
2018-12-23T23:31:56.364Z,3.73
2018-12-23T23:34:26.190Z,3.78
2018-12-23T23:36:58.502Z,3.79
2018-12-23T23:39:28.289Z,3.82
2018-12-23T23:41:58.407Z,3.77
2018-12-23T23:44:28.692Z,3.86
2018-12-23T23:46:58.494Z,3.90
2018-12-23T23:49:28.279Z,4.00
2018-12-23T23:51:58.110Z,4.06
2018-12-23T23:54:27.926Z,4.15
2018-12-23T23:56:57.708Z,4.27
2018-12-23T23:59:27.440Z,4.30
